Time;durP1;ratioP1;P1;durP2;ratioP2;P2;SDS_P1;SDS_P2;PMS_P1;PMS_P2;Temp;Humidity;BMP_temperature;BMP_pressure;BME280_temperature;BME280_humidity;BME280_pressure;Samples;Min_cycle;Max_cycle;Signal;HPM_P1;HPM_P2
2021/12/06 00:00:38;;;;;;;11.52;4.65;;;5.10;99.90;;;;;;5048116;28;20057;-66
2021/12/06 00:03:07;;;;;;;16.33;5.53;;;5.10;99.90;;;;;;5044998;28;20446;-69
2021/12/06 00:05:35;;;;;;;17.88;6.95;;;5.20;99.90;;;;;;5046708;28;20053;-74
2021/12/06 00:08:03;;;;;;;10.27;5.30;;;5.20;99.90;;;;;;5028692;28;20053;-66
2021/12/06 00:10:30;;;;;;;12.85;4.78;;;5.20;99.90;;;;;;5045370;28;20402;-66
2021/12/06 00:12:57;;;;;;;13.98;4.72;;;5.20;99.90;;;;;;5050679;28;20052;-67
2021/12/06 00:15:24;;;;;;;10.40;4.43;;;5.30;99.90;;;;;;5035699;28;20056;-66
2021/12/06 00:17:51;;;;;;;12.43;4.78;;;5.30;99.90;;;;;;5052002;28;20045;-66
2021/12/06 00:20:18;;;;;;;11.98;4.55;;;5.30;99.90;;;;;;5051963;28;20452;-66
2021/12/06 00:22:44;;;;;;;15.18;5.03;;;5.30;99.90;;;;;;5034813;28;20508;-66
2021/12/06 00:25:13;;;;;;;18.08;6.68;;;5.30;99.90;;;;;;5051734;28;20056;-66
2021/12/06 00:27:40;;;;;;;16.13;5.63;;;5.20;99.90;;;;;;5051933;28;20055;-67
2021/12/06 00:30:11;;;;;;;14.77;5.70;;;5.20;99.90;;;;;;5053629;28;20300;-67
2021/12/06 00:32:39;;;;;;;13.73;5.63;;;5.10;99.90;;;;;;5051274;28;20488;-66
2021/12/06 00:35:07;;;;;;;9.93;5.22;;;5.10;99.90;;;;;;5053441;28;20068;-69
2021/12/06 00:37:42;;;;;;;13.07;5.93;;;5.10;99.90;;;;;;5050966;28;20052;-67
2021/12/06 00:40:11;;;;;;;12.18;5.80;;;5.10;99.90;;;;;;5052258;28;20079;-66
2021/12/06 00:42:38;;;;;;;18.08;7.45;;;5.00;99.90;;;;;;5053150;28;20045;-66
2021/12/06 00:45:06;;;;;;;14.55;5.80;;;5.00;99.90;;;;;;5051926;28;20041;-66
2021/12/06 00:47:33;;;;;;;13.55;6.78;;;5.00;99.90;;;;;;5051562;28;20496;-66
2021/12/06 00:50:00;;;;;;;12.45;5.32;;;5.00;99.90;;;;;;5050811;28;20049;-66
2021/12/06 00:52:27;;;;;;;11.40;5.60;;;5.10;99.90;;;;;;5051107;28;20123;-66
2021/12/06 00:54:54;;;;;;;13.75;6.30;;;5.10;99.90;;;;;;5051261;28;20056;-66
2021/12/06 00:57:21;;;;;;;14.63;5.35;;;5.10;99.90;;;;;;5018932;28;20053;-71
2021/12/06 00:59:48;;;;;;;11.43;5.40;;;5.10;99.90;;;;;;5051646;28;20049;-67
2021/12/06 01:02:15;;;;;;;25.25;6.35;;;5.10;99.90;;;;;;5051750;28;20048;-69
2021/12/06 01:04:43;;;;;;;10.25;5.13;;;5.10;99.90;;;;;;5033936;28;20050;-66
2021/12/06 01:07:10;;;;;;;12.38;5.40;;;5.10;99.90;;;;;;5051500;28;20479;-66
2021/12/06 01:09:37;;;;;;;10.77;5.00;;;5.10;99.90;;;;;;5051679;28;20052;-67
2021/12/06 01:12:04;;;;;;;15.25;5.63;;;5.10;99.90;;;;;;5050808;28;20060;-66
2021/12/06 01:14:31;;;;;;;11.65;5.47;;;5.10;99.90;;;;;;5052505;28;20057;-66
2021/12/06 01:16:58;;;;;;;12.35;6.85;;;5.10;99.90;;;;;;5052103;28;20067;-71
2021/12/06 01:19:29;;;;;;;9.90;5.70;;;5.20;99.90;;;;;;5052361;28;20041;-66
2021/12/06 01:22:42;;;;;;;13.50;6.10;;;5.20;99.90;;;;;;5052418;28;20400;-66
2021/12/06 01:25:01;;;;;;;11.35;4.55;;;5.20;99.90;;;;;;5049189;28;20057;-66
2021/12/06 01:30:25;;;;;;;14.63;5.75;;;5.10;99.90;;;;;;5050137;28;20061;-66
2021/12/06 01:41:08;;;;;;;11.35;4.85;;;5.20;99.90;;;;;;5038750;28;20055;-65
2021/12/06 01:43:35;;;;;;;14.82;6.50;;;5.20;99.90;;;;;;5034047;28;20485;-66
2021/12/06 01:46:02;;;;;;;17.40;6.10;;;5.20;99.90;;;;;;5048917;28;20048;-66
2021/12/06 01:48:30;;;;;;;17.38;5.95;;;5.20;99.90;;;;;;5049711;28;20087;-66
2021/12/06 01:50:56;;;;;;;10.60;5.60;;;5.20;99.90;;;;;;5050321;28;20088;-67
2021/12/06 01:53:23;;;;;;;11.43;6.60;;;5.10;99.90;;;;;;5049674;28;20049;-66
2021/12/06 01:55:50;;;;;;;10.82;5.82;;;5.10;99.90;;;;;;5050200;28;20049;-66
2021/12/06 01:58:17;;;;;;;13.90;6.85;;;5.10;99.90;;;;;;5030667;28;20046;-66
2021/12/06 02:00:49;;;;;;;15.80;8.15;;;5.00;99.90;;;;;;5043905;28;20140;-65
2021/12/06 02:03:17;;;;;;;14.82;6.40;;;5.00;99.90;;;;;;5052491;28;20045;-66
2021/12/06 02:05:45;;;;;;;8.80;5.90;;;5.00;99.90;;;;;;5051104;28;20045;-66
2021/12/06 02:08:12;;;;;;;15.52;6.38;;;5.00;99.90;;;;;;5050686;28;20056;-66
2021/12/06 02:10:39;;;;;;;11.68;6.53;;;5.00;99.90;;;;;;5049956;28;20045;-69
2021/12/06 02:13:07;;;;;;;15.85;6.43;;;5.00;99.90;;;;;;5050493;28;20052;-67
2021/12/06 02:18:10;;;;;;;15.13;7.07;;;5.00;99.90;;;;;;5034794;28;20059;-66
2021/12/06 02:20:46;;;;;;;13.50;7.10;;;5.00;99.90;;;;;;5049502;28;20083;-66
2021/12/06 02:23:13;;;;;;;13.45;8.50;;;5.00;99.90;;;;;;5033858;28;20333;-66
2021/12/06 02:25:40;;;;;;;15.32;9.40;;;5.00;99.90;;;;;;5049514;28;20052;-66
2021/12/06 02:28:07;;;;;;;18.83;9.93;;;5.00;99.90;;;;;;5050175;28;21561;-66
2021/12/06 02:30:34;;;;;;;22.00;12.30;;;4.90;99.90;;;;;;5051353;28;20076;-71
2021/12/06 02:33:01;;;;;;;21.95;11.18;;;4.90;99.90;;;;;;5049938;28;20049;-67
2021/12/06 02:35:28;;;;;;;19.90;11.95;;;4.90;99.90;;;;;;5029654;28;20417;-67
2021/12/06 02:37:55;;;;;;;17.48;11.63;;;4.90;99.90;;;;;;5049703;28;20439;-67
2021/12/06 02:40:25;;;;;;;15.85;10.68;;;4.80;99.90;;;;;;5066807;28;20052;-67
2021/12/06 02:42:54;;;;;;;21.45;11.40;;;4.80;99.90;;;;;;5049726;28;20053;-71
2021/12/06 02:45:24;;;;;;;18.80;11.57;;;4.80;99.90;;;;;;5049842;28;20100;-66
2021/12/06 02:47:56;;;;;;;14.02;10.18;;;4.80;99.90;;;;;;5064818;28;20060;-66
2021/12/06 02:50:25;;;;;;;17.77;11.13;;;4.70;99.90;;;;;;5049875;28;20052;-65
2021/12/06 02:52:54;;;;;;;21.98;11.15;;;4.70;99.90;;;;;;5032289;28;20081;-66
2021/12/06 02:57:57;;;;;;;20.90;11.57;;;4.70;99.90;;;;;;5050228;28;20373;-67
2021/12/06 03:00:25;;;;;;;18.90;12.05;;;4.70;99.90;;;;;;5050623;28;20080;-66
2021/12/06 03:02:52;;;;;;;16.80;11.77;;;4.60;99.90;;;;;;5034392;28;20049;-65
2021/12/06 03:05:19;;;;;;;24.33;13.18;;;4.60;99.90;;;;;;5050141;28;20492;-66
2021/12/06 03:07:51;;;;;;;22.15;12.65;;;4.60;99.90;;;;;;5049653;28;20057;-70
2021/12/06 03:10:18;;;;;;;17.67;11.25;;;4.60;99.90;;;;;;5032221;28;20049;-66
2021/12/06 03:12:46;;;;;;;26.92;12.13;;;4.50;99.90;;;;;;5032701;28;20479;-66
2021/12/06 03:15:13;;;;;;;20.15;12.30;;;4.50;99.90;;;;;;5049020;28;20279;-66
2021/12/06 03:17:40;;;;;;;24.38;12.65;;;4.50;99.90;;;;;;5049019;28;20045;-66
2021/12/06 03:20:09;;;;;;;20.10;12.68;;;4.50;99.90;;;;;;5050211;28;20048;-66
2021/12/06 03:22:36;;;;;;;24.48;12.63;;;4.40;99.90;;;;;;5050531;28;20393;-65
2021/12/06 03:25:10;;;;;;;20.33;12.23;;;4.50;99.90;;;;;;5048973;28;20500;-66
2021/12/06 03:27:37;;;;;;;19.77;11.98;;;4.40;99.90;;;;;;5049602;28;20496;-66
2021/12/06 03:30:11;;;;;;;21.10;12.65;;;4.40;99.90;;;;;;5048581;28;20515;-66
2021/12/06 03:32:38;;;;;;;24.98;13.93;;;4.40;99.90;;;;;;5047984;28;20089;-66
2021/12/06 03:35:06;;;;;;;24.50;13.70;;;4.40;99.90;;;;;;5047705;28;20048;-71
2021/12/06 03:37:33;;;;;;;25.00;13.88;;;4.40;99.90;;;;;;5049298;28;20492;-66
2021/12/06 03:40:00;;;;;;;23.10;14.05;;;4.40;99.90;;;;;;5031066;28;20430;-66
2021/12/06 03:42:26;;;;;;;22.17;14.48;;;4.40;99.90;;;;;;5049427;28;20109;-67
2021/12/06 03:44:54;;;;;;;23.77;13.82;;;4.40;99.90;;;;;;5045110;28;20091;-66
2021/12/06 03:47:24;;;;;;;21.40;13.70;;;4.40;99.90;;;;;;5049652;28;20086;-66
2021/12/06 03:49:51;;;;;;;24.02;15.10;;;4.40;99.90;;;;;;5032140;28;20049;-66
2021/12/06 03:52:18;;;;;;;21.55;13.93;;;4.40;99.90;;;;;;5047421;28;20052;-71
2021/12/06 03:54:46;;;;;;;26.58;14.27;;;4.40;99.90;;;;;;5047671;28;20052;-66
2021/12/06 03:57:13;;;;;;;22.40;15.18;;;4.40;99.90;;;;;;5047507;28;20166;-65
2021/12/06 03:59:40;;;;;;;25.90;14.32;;;4.40;99.90;;;;;;5048872;28;20435;-65
2021/12/06 04:02:08;;;;;;;23.27;13.65;;;4.40;99.90;;;;;;5048833;28;20385;-67
2021/12/06 04:04:35;;;;;;;27.92;15.23;;;4.40;99.90;;;;;;5056735;28;20084;-66
2021/12/06 04:07:05;;;;;;;24.08;14.57;;;4.40;99.90;;;;;;5042894;28;20049;-66
2021/12/06 04:09:32;;;;;;;33.63;16.15;;;4.40;99.90;;;;;;5033361;28;20050;-66
2021/12/06 04:11:59;;;;;;;25.30;14.32;;;4.40;99.90;;;;;;5044948;28;20055;-66
2021/12/06 04:14:26;;;;;;;25.92;16.92;;;4.40;99.90;;;;;;5047774;28;20053;-66
2021/12/06 04:16:53;;;;;;;33.25;15.57;;;4.40;99.90;;;;;;5047126;28;20427;-66
2021/12/06 04:19:20;;;;;;;34.35;16.77;;;4.40;99.90;;;;;;5047503;28;20053;-66
2021/12/06 04:21:47;;;;;;;30.40;16.92;;;4.30;99.90;;;;;;5048669;28;20088;-66
2021/12/06 04:24:15;;;;;;;33.30;16.00;;;4.40;99.90;;;;;;4974864;28;1153235;-66
2021/12/06 04:26:42;;;;;;;26.35;15.52;;;4.30;99.90;;;;;;5048967;28;20051;-66
2021/12/06 04:29:09;;;;;;;24.40;15.88;;;4.30;99.90;;;;;;5047938;28;20056;-67
2021/12/06 04:31:38;;;;;;;31.30;16.45;;;4.30;99.90;;;;;;5047691;28;20090;-66
2021/12/06 04:34:05;;;;;;;31.67;16.58;;;4.30;99.90;;;;;;5047955;28;20492;-67
2021/12/06 04:36:38;;;;;;;27.27;16.77;;;4.30;99.90;;;;;;5049464;28;20052;-66
2021/12/06 04:39:06;;;;;;;25.60;16.33;;;4.40;99.90;;;;;;5049513;28;20130;-73
2021/12/06 04:41:33;;;;;;;25.95;16.92;;;4.40;99.90;;;;;;5048457;28;20049;-65
2021/12/06 04:44:00;;;;;;;30.00;16.67;;;4.40;99.90;;;;;;5021338;28;20056;-66
2021/12/06 04:46:27;;;;;;;31.73;17.20;;;4.40;99.90;;;;;;5048134;28;20049;-66
2021/12/06 04:48:54;;;;;;;39.10;17.88;;;4.40;99.90;;;;;;5047649;28;20463;-65
2021/12/06 04:51:21;;;;;;;32.75;16.88;;;4.40;99.90;;;;;;5048441;28;20048;-65
2021/12/06 04:53:48;;;;;;;34.70;16.65;;;4.40;99.90;;;;;;5047641;28;20091;-67
2021/12/06 04:56:18;;;;;;;36.47;17.52;;;4.40;99.90;;;;;;5047971;28;20049;-65
2021/12/06 04:58:44;;;;;;;;;;;4.40;99.90;;;;;;5050473;28;20547;-69
2021/12/06 05:01:15;;;;;;;41.03;20.35;;;4.40;99.90;;;;;;5052190;28;19950;-65
2021/12/06 05:03:47;;;;;;;37.60;17.95;;;4.40;99.90;;;;;;5052285;28;20052;-65
2021/12/06 05:06:17;;;;;;;30.88;16.33;;;4.40;99.90;;;;;;5052119;28;20102;-66
2021/12/06 05:08:50;;;;;;;35.05;19.13;;;4.50;99.90;;;;;;5054785;28;20059;-75
2021/12/06 05:11:18;;;;;;;29.98;16.65;;;4.50;99.90;;;;;;5035011;28;20052;-66
2021/12/06 05:13:45;;;;;;;27.35;16.83;;;4.50;99.90;;;;;;5050460;28;20068;-67
2021/12/06 05:16:12;;;;;;;32.45;18.00;;;4.50;99.90;;;;;;5031482;28;20084;-68
2021/12/06 05:18:39;;;;;;;36.60;19.23;;;4.60;99.90;;;;;;5040728;28;20049;-66
2021/12/06 05:21:06;;;;;;;27.42;17.23;;;4.60;99.90;;;;;;5034475;28;20163;-66
2021/12/06 05:23:34;;;;;;;35.47;18.80;;;4.60;99.90;;;;;;5050040;28;20488;-66
2021/12/06 05:26:02;;;;;;;29.35;17.27;;;4.60;99.90;;;;;;5026297;28;20049;-67
2021/12/06 05:28:32;;;;;;;32.67;18.67;;;4.60;99.90;;;;;;5052130;28;20045;-65
2021/12/06 05:30:59;;;;;;;37.95;19.38;;;4.60;99.90;;;;;;5032332;28;20046;-67
2021/12/06 05:33:31;;;;;;;43.28;20.52;;;4.60;99.90;;;;;;5047086;28;20082;-65
2021/12/06 05:36:01;;;;;;;30.10;18.35;;;4.60;99.90;;;;;;5051216;28;20377;-65
2021/12/06 05:38:29;;;;;;;31.58;19.30;;;4.60;99.90;;;;;;5045888;28;20052;-67
2021/12/06 05:40:56;;;;;;;32.03;17.58;;;4.60;99.90;;;;;;5031508;28;20053;-65
2021/12/06 05:43:23;;;;;;;29.48;18.13;;;4.60;99.90;;;;;;5035518;28;20507;-65
2021/12/06 05:45:50;;;;;;;31.55;19.17;;;4.60;99.90;;;;;;5046824;28;20045;-65
2021/12/06 05:48:17;;;;;;;30.65;18.05;;;4.60;99.90;;;;;;5050470;28;20488;-65
2021/12/06 05:50:49;;;;;;;34.60;20.08;;;4.60;99.90;;;;;;5035177;28;20483;-66
2021/12/06 05:53:16;;;;;;;26.65;16.88;;;4.60;99.90;;;;;;5046006;28;20500;-67
2021/12/06 05:55:44;;;;;;;29.17;17.73;;;4.60;99.90;;;;;;5050737;28;20045;-66
2021/12/06 05:58:12;;;;;;;28.25;18.02;;;4.60;99.90;;;;;;5017819;28;20542;-65
2021/12/06 06:00:38;;;;;;;33.40;17.48;;;4.60;99.90;;;;;;5050612;28;20041;-65
2021/12/06 06:03:06;;;;;;;33.78;19.30;;;4.50;99.90;;;;;;5050658;28;20385;-66
2021/12/06 06:05:34;;;;;;;36.58;18.40;;;4.50;99.90;;;;;;5033926;28;20040;-65
2021/12/06 06:08:01;;;;;;;36.25;18.25;;;4.50;99.90;;;;;;5060321;28;20037;-67
2021/12/06 06:10:30;;;;;;;39.75;19.30;;;4.50;99.90;;;;;;5048798;28;20049;-66
2021/12/06 06:13:01;;;;;;;28.52;18.25;;;4.60;99.90;;;;;;5051076;28;20045;-65
2021/12/06 06:15:29;;;;;;;30.75;17.38;;;4.50;99.90;;;;;;5051656;28;20052;-65
2021/12/06 06:17:57;;;;;;;32.17;17.90;;;4.50;99.90;;;;;;5049791;28;20045;-66
2021/12/06 06:20:39;;;;;;;32.15;18.42;;;4.40;99.90;;;;;;5050185;28;20366;-71
2021/12/06 06:23:06;;;;;;;32.20;17.63;;;4.40;99.90;;;;;;5035204;28;20397;-67
2021/12/06 06:25:33;;;;;;;32.05;17.08;;;4.40;99.90;;;;;;5063143;28;20052;-66
2021/12/06 06:28:00;;;;;;;30.80;18.15;;;4.40;99.90;;;;;;5050007;28;20080;-65
2021/12/06 06:30:27;;;;;;;38.35;20.45;;;4.40;99.90;;;;;;5054877;28;20057;-65
2021/12/06 06:32:54;;;;;;;35.35;18.48;;;4.40;99.90;;;;;;5049479;28;20432;-65
2021/12/06 06:35:21;;;;;;;35.03;16.95;;;4.30;99.90;;;;;;5033386;28;20072;-66
2021/12/06 06:37:49;;;;;;;34.58;19.27;;;4.30;99.90;;;;;;5048870;28;20489;-67
2021/12/06 06:40:16;;;;;;;68.18;41.17;;;4.30;99.90;;;;;;5052395;28;20049;-66
2021/12/06 06:42:43;;;;;;;37.17;21.45;;;4.30;99.90;;;;;;5032369;28;20049;-66
2021/12/06 06:45:12;;;;;;;56.60;35.47;;;4.40;99.90;;;;;;5048630;28;20056;-65
2021/12/06 06:47:39;;;;;;;31.65;18.08;;;4.50;99.90;;;;;;5033283;28;20055;-65
2021/12/06 06:50:07;;;;;;;34.03;18.23;;;4.40;99.90;;;;;;5048889;28;20049;-67
2021/12/06 06:52:34;;;;;;;28.73;17.00;;;4.40;99.90;;;;;;5049572;28;20052;-70
2021/12/06 06:55:03;;;;;;;33.40;18.17;;;4.40;99.90;;;;;;5049685;28;20045;-72
2021/12/06 06:57:30;;;;;;;30.67;17.33;;;4.40;99.90;;;;;;5050394;28;20041;-69
2021/12/06 06:59:57;;;;;;;30.30;17.30;;;4.40;99.90;;;;;;5050448;28;20041;-69
2021/12/06 07:02:24;;;;;;;28.45;15.52;;;4.40;99.90;;;;;;5050775;28;20064;-70
2021/12/06 07:04:52;;;;;;;34.20;17.50;;;4.40;99.90;;;;;;5048014;28;20123;-67
2021/12/06 07:07:19;;;;;;;35.05;19.33;;;4.30;99.90;;;;;;5049882;28;20049;-64
2021/12/06 07:09:46;;;;;;;30.15;16.08;;;4.30;99.90;;;;;;5033466;28;20064;-65
2021/12/06 07:12:16;;;;;;;40.80;23.50;;;4.30;99.90;;;;;;5050648;28;20473;-66
2021/12/06 07:14:44;;;;;;;46.75;28.33;;;4.30;99.90;;;;;;5050178;28;20555;-74
2021/12/06 07:17:11;;;;;;;74.90;46.03;;;4.30;99.90;;;;;;5049592;28;20057;-69
2021/12/06 07:19:38;;;;;;;53.20;30.63;;;4.30;99.90;;;;;;5050262;28;20049;-66
2021/12/06 07:22:05;;;;;;;58.33;31.42;;;4.30;99.90;;;;;;5048595;28;20471;-66
2021/12/06 07:24:32;;;;;;;32.50;16.40;;;4.30;99.90;;;;;;5047843;28;20421;-69
2021/12/06 07:26:59;;;;;;;30.48;16.15;;;4.20;99.90;;;;;;5048418;28;20061;-70
2021/12/06 07:29:26;;;;;;;30.73;17.40;;;4.20;99.90;;;;;;5060875;28;20076;-72
2021/12/06 07:31:53;;;;;;;27.83;14.30;;;4.20;99.90;;;;;;5038175;28;20049;-70
2021/12/06 07:34:21;;;;;;;24.40;14.18;;;4.20;99.90;;;;;;5052610;28;20052;-67
2021/12/06 07:36:48;;;;;;;25.83;13.38;;;4.20;99.90;;;;;;5028530;28;20052;-66
2021/12/06 07:39:22;;;;;;;25.55;14.27;;;4.10;99.90;;;;;;5031394;28;20511;-67
2021/12/06 07:41:50;;;;;;;24.50;13.57;;;4.10;99.90;;;;;;5047942;28;20401;-66
2021/12/06 07:44:19;;;;;;;;;;;4.10;99.90;;;;;;5015581;28;20416;-66
2021/12/06 07:46:46;;;;;;;24.13;13.10;;;4.10;99.90;;;;;;5034621;28;20293;-71
2021/12/06 07:49:14;;;;;;;25.13;14.55;;;4.00;99.90;;;;;;5043220;28;20428;-69
2021/12/06 07:51:41;;;;;;;24.10;14.85;;;4.10;99.90;;;;;;5047091;28;20099;-70
2021/12/06 07:54:08;;;;;;;22.52;13.80;;;4.00;99.90;;;;;;5047409;28;20079;-70
2021/12/06 07:56:35;;;;;;;24.08;13.98;;;4.00;99.90;;;;;;5046896;28;20052;-71
2021/12/06 07:59:04;;;;;;;28.27;15.23;;;4.00;99.90;;;;;;5047741;28;20049;-70
2021/12/06 08:01:31;;;;;;;23.48;12.80;;;4.00;99.90;;;;;;5048708;28;20135;-67
2021/12/06 08:03:59;;;;;;;23.33;12.93;;;4.00;99.90;;;;;;5051234;28;20052;-68
2021/12/06 08:06:27;;;;;;;24.15;13.50;;;4.10;99.90;;;;;;5028988;28;20052;-69
2021/12/06 08:08:54;;;;;;;23.42;12.93;;;4.10;99.90;;;;;;5047507;28;20135;-66
2021/12/06 08:11:21;;;;;;;19.40;11.98;;;4.10;99.90;;;;;;5045991;28;20504;-67
2021/12/06 08:13:56;;;;;;;23.38;13.52;;;4.10;99.90;;;;;;5029216;28;20049;-67
2021/12/06 08:16:30;;;;;;;18.33;10.10;;;4.20;99.90;;;;;;5025829;28;20049;-74
2021/12/06 08:18:59;;;;;;;18.38;9.40;;;4.20;99.90;;;;;;5030885;28;20128;-69
2021/12/06 08:21:26;;;;;;;21.58;11.15;;;4.20;99.90;;;;;;5047643;28;20049;-67
2021/12/06 08:23:54;;;;;;;15.27;9.30;;;4.30;99.90;;;;;;5046489;28;20057;-69
2021/12/06 08:26:23;;;;;;;18.42;9.55;;;4.30;99.90;;;;;;5029646;28;20160;-69
2021/12/06 08:28:50;;;;;;;14.60;9.18;;;4.30;99.90;;;;;;5047369;28;20692;-68
2021/12/06 08:31:18;;;;;;;16.05;9.70;;;4.30;99.90;;;;;;5030103;28;20049;-69
2021/12/06 08:33:46;;;;;;;17.75;8.88;;;4.30;99.90;;;;;;5049005;28;20437;-67
2021/12/06 08:36:13;;;;;;;19.00;10.77;;;4.40;99.90;;;;;;5033649;28;20507;-69
2021/12/06 08:38:40;;;;;;;190.43;126.68;;;4.40;99.90;;;;;;5031688;28;20045;-69
2021/12/06 08:41:10;;;;;;;49.92;28.63;;;4.30;99.90;;;;;;5051260;28;20056;-69
2021/12/06 08:43:37;;;;;;;53.72;43.22;;;4.40;99.90;;;;;;5033152;28;20636;-67
2021/12/06 08:46:19;;;;;;;16.00;10.30;;;4.40;99.90;;;;;;5050826;28;20140;-70
2021/12/06 08:48:47;;;;;;;18.33;8.77;;;4.40;99.90;;;;;;5059964;28;20053;-73
2021/12/06 08:51:18;;;;;;;15.40;8.55;;;4.50;99.90;;;;;;5050781;28;20055;-75
2021/12/06 08:53:45;;;;;;;15.10;8.20;;;4.50;99.90;;;;;;5051071;28;20049;-73
2021/12/06 08:56:12;;;;;;;16.08;8.57;;;4.50;99.90;;;;;;5050991;28;20464;-72
2021/12/06 08:58:40;;;;;;;11.23;7.15;;;4.50;99.90;;;;;;5053515;28;20056;-72
2021/12/06 09:01:07;;;;;;;12.35;7.75;;;4.50;99.90;;;;;;5045999;28;20049;-73
2021/12/06 09:03:35;;;;;;;17.40;8.15;;;4.60;99.90;;;;;;5039515;28;20396;-72
2021/12/06 09:06:05;;;;;;;13.52;8.27;;;4.60;99.90;;;;;;5057593;28;20076;-73
2021/12/06 09:08:32;;;;;;;13.98;7.47;;;4.60;99.90;;;;;;5026296;28;20051;-73
2021/12/06 09:10:59;;;;;;;12.95;8.07;;;4.70;99.90;;;;;;5035344;28;20456;-73
2021/12/06 09:13:28;;;;;;;12.27;6.68;;;4.70;99.90;;;;;;5052541;28;20063;-71
2021/12/06 09:15:59;;;;;;;11.48;7.00;;;4.80;99.90;;;;;;5051877;28;20128;-71
2021/12/06 09:18:29;;;;;;;15.77;7.28;;;4.90;99.90;;;;;;5033881;28;20510;-71
2021/12/06 09:20:57;;;;;;;11.90;7.13;;;4.90;99.90;;;;;;5052572;28;20048;-72
2021/12/06 09:23:25;;;;;;;13.07;7.27;;;5.00;99.90;;;;;;5028094;28;20049;-74
2021/12/06 09:25:54;;;;;;;11.48;7.22;;;5.00;99.90;;;;;;5047440;28;20340;-72
2021/12/06 09:28:21;;;;;;;15.30;7.05;;;5.10;99.90;;;;;;5033024;28;20106;-72
2021/12/06 09:30:48;;;;;;;13.32;5.63;;;5.10;99.90;;;;;;5050153;28;20129;-73
2021/12/06 09:33:15;;;;;;;11.55;5.78;;;5.30;99.90;;;;;;5046116;28;20926;-72
2021/12/06 09:35:44;;;;;;;12.35;6.40;;;5.30;99.90;;;;;;5064329;28;20052;-75
2021/12/06 09:38:12;;;;;;;14.27;5.07;;;5.40;99.90;;;;;;5050254;28;20087;-71
2021/12/06 09:40:41;;;;;;;10.45;6.60;;;5.50;99.90;;;;;;5047614;28;20041;-73
2021/12/06 09:43:09;;;;;;;9.55;5.35;;;5.50;99.90;;;;;;5052365;28;20484;-71
2021/12/06 09:45:36;;;;;;;10.68;6.18;;;5.50;99.90;;;;;;5051299;28;20059;-71
2021/12/06 09:48:03;;;;;;;11.10;5.38;;;5.50;99.90;;;;;;5051483;28;20151;-71
2021/12/06 09:50:36;;;;;;;11.32;5.75;;;5.50;99.90;;;;;;5051449;28;20053;-71
2021/12/06 09:53:08;;;;;;;10.60;5.38;;;5.50;99.90;;;;;;5052683;28;20210;-72
2021/12/06 09:55:35;;;;;;;14.80;6.15;;;5.50;99.90;;;;;;5052552;28;20068;-71
2021/12/06 09:58:03;;;;;;;18.27;8.38;;;5.50;99.90;;;;;;5051017;28;20092;-71
2021/12/06 10:00:38;;;;;;;14.52;6.07;;;5.50;99.90;;;;;;5052162;28;20053;-71
2021/12/06 10:03:05;;;;;;;13.05;5.75;;;5.60;99.90;;;;;;5034538;28;20087;-71
2021/12/06 10:05:33;;;;;;;12.77;6.63;;;5.60;99.90;;;;;;5050245;28;20048;-71
2021/12/06 10:08:00;;;;;;;11.82;6.15;;;5.60;99.90;;;;;;5034468;28;20048;-72
2021/12/06 10:10:27;;;;;;;10.02;5.10;;;5.60;99.90;;;;;;5050680;28;20056;-71
2021/12/06 10:12:55;;;;;;;13.35;6.72;;;5.60;99.90;;;;;;5052204;28;20100;-71
2021/12/06 10:15:25;;;;;;;11.73;5.55;;;5.70;99.90;;;;;;5049826;28;20382;-78
2021/12/06 10:17:57;;;;;;;8.18;4.68;;;5.70;99.90;;;;;;5050520;28;20047;-71
2021/12/06 10:20:24;;;;;;;13.18;6.40;;;5.70;99.90;;;;;;5050307;28;20053;-71
2021/12/06 10:22:54;;;;;;;13.25;5.90;;;5.80;99.90;;;;;;5051083;28;20041;-71
2021/12/06 10:25:23;;;;;;;12.70;6.68;;;5.70;99.90;;;;;;5049561;28;20053;-70
2021/12/06 10:28:05;;;;;;;13.70;7.30;;;5.80;99.90;;;;;;5050552;28;20044;-70
2021/12/06 10:30:34;;;;;;;10.73;5.82;;;5.70;99.90;;;;;;5050980;28;20045;-71
2021/12/06 10:33:06;;;;;;;11.38;6.38;;;5.70;99.90;;;;;;5050072;28;20056;-70
2021/12/06 10:35:33;;;;;;;13.00;6.72;;;5.80;99.90;;;;;;5051165;28;20381;-70
2021/12/06 10:38:00;;;;;;;19.63;9.43;;;5.80;99.90;;;;;;5049504;28;20052;-70
2021/12/06 10:40:33;;;;;;;14.00;6.90;;;5.80;99.90;;;;;;5049511;28;20083;-71
2021/12/06 10:43:01;;;;;;;12.35;7.03;;;5.80;99.90;;;;;;5050742;28;20047;-77
2021/12/06 10:45:35;;;;;;;55.15;30.45;;;5.80;99.90;;;;;;5029414;28;20053;-69
2021/12/06 10:48:09;;;;;;;38.63;26.10;;;5.90;99.90;;;;;;5049501;28;20049;-70
2021/12/06 10:50:39;;;;;;;15.57;8.60;;;6.00;99.90;;;;;;5050122;28;20041;-68
2021/12/06 10:53:06;;;;;;;11.75;7.20;;;6.00;99.90;;;;;;5046284;28;20037;-70
2021/12/06 10:55:34;;;;;;;14.23;6.72;;;6.00;99.90;;;;;;5049401;28;20053;-66
2021/12/06 10:58:03;;;;;;;13.13;6.65;;;6.00;99.90;;;;;;5013377;28;20051;-69
2021/12/06 11:00:43;;;;;;;;;;;6.00;99.90;;;;;;5048218;28;20155;-67
2021/12/06 11:03:21;;;;;;;12.88;6.82;;;6.00;99.90;;;;;;5050792;28;20273;-72
2021/12/06 11:05:55;;;;;;;9.95;6.35;;;6.00;99.90;;;;;;5050352;28;20045;-79
2021/12/06 11:08:34;;;;;;;11.77;7.20;;;6.00;99.90;;;;;;5058913;28;20045;-77
2021/12/06 11:11:09;;;;;;;10.75;6.47;;;5.90;99.90;;;;;;5034285;28;20053;-75
2021/12/06 11:13:39;;;;;;;12.20;5.68;;;5.90;99.90;;;;;;5034200;28;20048;-73
2021/12/06 11:16:27;;;;;;;13.20;6.80;;;5.80;99.90;;;;;;5064934;28;20051;-72
2021/12/06 11:19:20;;;;;;;14.43;6.70;;;5.80;99.90;;;;;;5058253;28;20079;-76
2021/12/06 11:21:52;;;;;;;10.68;6.95;;;5.80;99.90;;;;;;5028416;28;20060;-69
2021/12/06 11:24:31;;;;;;;11.07;5.82;;;5.80;99.90;;;;;;5068805;28;20083;-72
2021/12/06 11:27:02;;;;;;;12.15;5.38;;;5.80;99.90;;;;;;5032039;28;20064;-72
2021/12/06 11:29:32;;;;;;;7.63;4.57;;;5.70;99.90;;;;;;5048106;28;20499;-82
2021/12/06 11:32:23;;;;;;;10.32;5.15;;;5.70;99.90;;;;;;5050635;28;20051;-75
2021/12/06 11:35:03;;;;;;;9.15;3.88;;;5.70;99.90;;;;;;5041526;28;20182;-75
2021/12/06 11:37:36;;;;;;;6.90;3.85;;;5.80;99.90;;;;;;5032347;28;20057;-71
2021/12/06 11:40:21;;;;;;;10.30;5.10;;;5.80;99.90;;;;;;5048533;28;20049;-73
2021/12/06 11:43:02;;;;;;;12.40;5.38;;;5.80;99.90;;;;;;5048727;28;20512;-75
2021/12/06 11:45:43;;;;;;;12.05;5.57;;;5.90;99.90;;;;;;5049009;28;20045;-74
2021/12/06 11:48:13;;;;;;;15.73;7.50;;;5.90;99.90;;;;;;5049990;28;20047;-73
2021/12/06 11:50:46;;;;;;;14.45;7.00;;;5.90;99.90;;;;;;5050770;28;20073;-71
2021/12/06 11:53:14;;;;;;;15.45;6.32;;;6.00;99.90;;;;;;5048499;28;20041;-73
2021/12/06 11:55:49;;;;;;;9.73;4.72;;;6.00;99.90;;;;;;5048248;28;20136;-74
2021/12/06 11:58:32;;;;;;;9.18;5.63;;;6.10;99.90;;;;;;5050466;28;20095;-72
2021/12/06 12:01:14;;;;;;;7.53;5.15;;;6.10;99.90;;;;;;5048669;28;20055;-71
2021/12/06 12:03:49;;;;;;;10.43;5.88;;;6.10;99.90;;;;;;5049180;28;20164;-73
2021/12/06 12:06:25;;;;;;;10.18;6.85;;;6.10;99.90;;;;;;5048129;28;20060;-69
2021/12/06 12:09:16;;;;;;;11.38;6.20;;;6.10;99.90;;;;;;5034271;28;20145;-70
2021/12/06 12:12:19;;;;;;;11.10;6.32;;;6.20;99.90;;;;;;5035374;28;20097;-70
2021/12/06 12:14:58;;;;;;;10.18;5.75;;;6.20;99.90;;;;;;5052021;28;20080;-70
2021/12/06 12:17:30;;;;;;;11.13;5.03;;;6.20;99.90;;;;;;5052855;28;20037;-71
2021/12/06 12:19:59;;;;;;;10.82;5.28;;;6.20;99.90;;;;;;5033188;28;20057;-71
2021/12/06 12:22:27;;;;;;;11.73;4.82;;;6.20;99.90;;;;;;5044963;28;20060;-71
2021/12/06 12:24:58;;;;;;;9.30;4.95;;;6.20;99.90;;;;;;5039598;28;20053;-76
2021/12/06 12:27:33;;;;;;;7.93;4.85;;;6.20;99.90;;;;;;5055300;28;20052;-69
2021/12/06 12:30:00;;;;;;;6.40;4.22;;;6.20;99.90;;;;;;5058899;28;20036;-69
2021/12/06 12:32:28;;;;;;;7.05;3.95;;;6.30;99.90;;;;;;5058666;28;20500;-69
2021/12/06 12:34:57;;;;;;;6.90;3.72;;;6.30;99.90;;;;;;5061480;28;20049;-69
2021/12/06 12:37:25;;;;;;;10.18;3.70;;;6.30;99.90;;;;;;5074166;28;20461;-69
2021/12/06 12:40:09;;;;;;;8.23;3.75;;;6.30;99.90;;;;;;5062459;28;20112;-69
2021/12/06 12:42:36;;;;;;;7.82;3.58;;;6.30;99.90;;;;;;5053751;28;20041;-69
2021/12/06 12:45:04;;;;;;;8.55;2.70;;;6.40;99.90;;;;;;5036212;28;20049;-69
2021/12/06 12:47:33;;;;;;;5.03;3.20;;;6.40;99.90;;;;;;5055014;28;20101;-70
2021/12/06 12:50:01;;;;;;;9.35;3.85;;;6.40;99.90;;;;;;5054518;28;20047;-70
2021/12/06 12:52:38;;;;;;;6.28;2.90;;;6.40;99.90;;;;;;5035489;28;20068;-68
2021/12/06 12:55:32;;;;;;;6.80;3.10;;;6.40;99.90;;;;;;5047129;28;20049;-69
2021/12/06 12:58:10;;;;;;;5.90;2.50;;;6.50;99.90;;;;;;5049974;28;20049;-71
2021/12/06 13:00:58;;;;;;;7.47;2.55;;;6.50;99.90;;;;;;5049885;28;20497;-71
2021/12/06 13:03:32;;;;;;;6.50;2.67;;;6.50;99.90;;;;;;5029922;28;20076;-71
2021/12/06 13:06:18;;;;;;;33.33;25.92;;;6.50;99.90;;;;;;5053176;28;20051;-73
2021/12/06 13:08:46;;;;;;;65.43;45.10;;;6.70;99.90;;;;;;5050956;28;20099;-71
2021/12/06 13:11:13;;;;;;;11.95;7.53;;;6.70;99.90;;;;;;5051111;28;20057;-72